Time;durP1;ratioP1;P1;durP2;ratioP2;P2;SDS_P1;SDS_P2;PMS_P1;PMS_P2;Temp;Humidity;BMP_temperature;BMP_pressure;BME280_temperature;BME280_humidity;BME280_pressure;Samples;Min_cycle;Max_cycle;Signal;HPM_P1;HPM_P2
2023/08/18 00:01:08;;;;;;;11.25;2.80;;;;;;;22.37;100.00;101029.09;5100224;56;1140700;-66
2023/08/18 00:06:14;;;;;;;5.12;2.98;;;;;;;22.25;100.00;101031.41;5069388;55;1142918;-66
2023/08/18 00:11:20;;;;;;;6.60;3.40;;;;;;;22.21;100.00;101022.51;5133981;55;1140925;-67
2023/08/18 00:16:25;;;;;;;5.40;4.28;;;;;;;22.19;100.00;101024.03;5118666;55;1140714;-66
2023/08/18 00:21:31;;;;;;;6.45;3.67;;;;;;;22.15;100.00;101020.56;5123882;56;1141114;-67
2023/08/18 00:26:36;;;;;;;8.13;2.50;;;;;;;22.14;100.00;101035.05;5049834;56;1140957;-66
2023/08/18 00:31:43;;;;;;;5.33;2.83;;;;;;;21.95;100.00;101026.41;5058173;56;1140599;-65
2023/08/18 00:36:49;;;;;;;2.94;2.10;;;;;;;21.84;100.00;101016.06;5050331;56;1140751;-66
2023/08/18 00:41:55;;;;;;;8.05;2.62;;;;;;;21.79;100.00;101027.04;5068634;56;1140724;-65
2023/08/18 00:47:01;;;;;;;6.67;2.80;;;;;;;21.81;100.00;101039.82;5049801;56;1140792;-66
2023/08/18 00:52:07;;;;;;;3.30;2.12;;;;;;;21.86;100.00;101038.24;5048412;56;1140908;-67
2023/08/18 00:57:13;;;;;;;5.28;2.15;;;;;;;21.79;100.00;101034.61;5071836;55;1140724;-66
2023/08/18 01:02:19;;;;;;;5.67;2.42;;;;;;;21.73;100.00;101036.16;5258435;55;1140838;-66
2023/08/18 01:07:25;;;;;;;6.93;2.53;;;;;;;21.57;100.00;101026.00;5174170;55;1140703;-66
2023/08/18 01:12:57;;;;;;;3.98;2.12;;;;;;;21.50;100.00;101021.02;5243298;54;1140769;-66
2023/08/18 01:18:05;;;;;;;3.85;2.20;;;;;;;21.39;100.00;101019.03;5257842;54;1141002;-66
2023/08/18 01:23:11;;;;;;;8.15;2.83;;;;;;;21.33;100.00;101017.07;5258668;54;1140762;-66
2023/08/18 01:28:16;;;;;;;7.33;2.20;;;;;;;21.23;100.00;101014.28;5278480;55;1140804;-66
2023/08/18 01:33:27;;;;;;;4.82;2.22;;;;;;;21.14;100.00;101004.02;5258138;54;1140703;-66
2023/08/18 01:38:34;;;;;;;4.45;2.62;;;;;;;21.11;100.00;101002.17;5171380;54;1140739;-67
2023/08/18 01:43:40;;;;;;;8.10;3.60;;;;;;;21.03;100.00;100992.31;5189333;55;1140702;-66
2023/08/18 01:48:46;;;;;;;3.40;2.72;;;;;;;21.06;100.00;100990.63;5190058;54;1141175;-66
2023/08/18 01:53:51;;;;;;;8.97;3.10;;;;;;;21.08;100.00;101001.20;5169953;55;1140725;-65
2023/08/18 01:58:58;;;;;;;3.42;2.30;;;;;;;21.02;100.00;100991.98;5191681;55;1140752;-66
2023/08/18 02:04:04;;;;;;;4.33;2.65;;;;;;;20.93;100.00;100997.08;5257671;54;1140859;-65
2023/08/18 02:09:09;;;;;;;4.90;2.50;;;;;;;20.87;100.00;101001.28;5258242;54;1140862;-66
2023/08/18 02:14:15;;;;;;;4.80;2.37;;;;;;;20.82;100.00;101004.99;5278779;54;1140818;-66
2023/08/18 02:19:21;;;;;;;6.50;2.47;;;;;;;20.89;100.00;101009.18;5258507;54;1141110;-66
2023/08/18 02:24:26;;;;;;;8.15;2.62;;;;;;;20.82;100.00;101016.25;5258519;55;1140894;-65
2023/08/18 02:29:34;;;;;;;4.33;3.33;;;;;;;20.70;100.00;101121.97;5278747;55;1140604;-65
2023/08/18 02:34:39;;;;;;;3.70;2.45;;;;;;;20.57;100.00;101078.66;5256988;54;1140863;-67
2023/08/18 02:39:45;;;;;;;4.62;2.65;;;;;;;20.64;100.00;101075.09;5256868;54;1140970;-66
2023/08/18 02:44:51;;;;;;;10.14;2.90;;;;;;;20.78;100.00;101094.25;5214398;55;1140717;-66
2023/08/18 02:49:56;;;;;;;7.20;3.42;;;;;;;20.96;100.00;101070.65;5239999;55;1143085;-66
2023/08/18 02:55:02;;;;;;;5.50;2.62;;;;;;;21.09;100.00;101076.31;5256697;54;1140935;-66
2023/08/18 03:00:08;;;;;;;4.90;2.60;;;;;;;21.20;100.00;101060.36;5257297;54;1140973;-66
2023/08/18 03:05:14;;;;;;;6.42;2.22;;;;;;;21.19;100.00;101055.95;5295897;55;1140949;-66
2023/08/18 03:10:20;;;;;;;10.35;3.65;;;;;;;21.06;100.00;101047.10;5255233;54;1140966;-68
2023/08/18 03:15:26;;;;;;;19.67;3.42;;;;;;;21.05;100.00;101036.85;5278315;54;1143133;-66
2023/08/18 03:20:31;;;;;;;7.75;2.67;;;;;;;21.04;100.00;101041.89;5295860;54;1142906;-66
2023/08/18 03:25:37;;;;;;;10.03;3.43;;;;;;;20.90;100.00;101036.41;5198149;53;1140784;-67
2023/08/18 03:30:43;;;;;;;4.70;2.70;;;;;;;20.80;100.00;101023.65;5268985;54;1142975;-66
2023/08/18 03:35:51;;;;;;;6.40;2.98;;;;;;;20.68;100.00;101011.09;5270673;54;1140879;-66
2023/08/18 03:41:03;;;;;;;6.62;3.22;;;;;;;20.58;100.00;101007.27;5241399;55;1140841;-66
2023/08/18 03:46:25;;;;;;;11.53;3.15;;;;;;;20.67;100.00;101011.59;5279018;54;1141073;-66
2023/08/18 03:51:38;;;;;;;8.67;3.20;;;;;;;20.53;100.00;101005.59;5256319;54;1142831;-66
2023/08/18 03:56:43;;;;;;;6.72;4.05;;;;;;;20.48;100.00;100999.04;5196378;56;1141141;-66
2023/08/18 04:01:51;;;;;;;7.08;3.75;;;;;;;20.49;100.00;101010.13;5169416;55;1141264;-66
2023/08/18 04:06:56;;;;;;;11.03;3.27;;;;;;;20.45;100.00;101008.31;5169645;55;1140773;-66
2023/08/18 04:12:02;;;;;;;8.90;3.30;;;;;;;20.44;100.00;101001.25;5234540;55;1142775;-66
2023/08/18 04:17:08;;;;;;;6.83;3.27;;;;;;;20.49;100.00;100998.87;5182012;55;1140876;-67
2023/08/18 04:22:14;;;;;;;6.75;3.83;;;;;;;20.52;100.00;100999.03;5005113;56;1141003;-66
2023/08/18 04:27:20;;;;;;;9.60;3.72;;;;;;;20.55;100.00;100987.45;4995419;56;1140690;-66
2023/08/18 04:32:25;;;;;;;6.14;3.88;;;;;;;20.58;100.00;100978.20;5038483;55;1140787;-66
2023/08/18 04:37:31;;;;;;;12.47;4.10;;;;;;;20.61;100.00;100987.27;5064303;56;1141078;-65
2023/08/18 04:42:37;;;;;;;10.68;4.25;;;;;;;20.58;100.00;100983.08;5221215;55;1142754;-66
2023/08/18 04:47:42;;;;;;;9.73;3.80;;;;;;;20.63;100.00;100971.28;5248222;54;1143005;-66
2023/08/18 04:52:48;;;;;;;7.72;3.90;;;;;;;20.60;100.00;100970.31;5258037;54;1140841;-66
2023/08/18 04:57:54;;;;;;;7.43;4.00;;;;;;;20.67;100.00;100969.93;5258528;54;1140772;-66
2023/08/18 05:02:59;;;;;;;6.03;3.92;;;;;;;20.71;100.00;100957.83;5279246;54;1140641;-65
2023/08/18 05:08:06;;;;;;;15.58;3.80;;;;;;;20.67;100.00;100957.00;5258593;54;1140499;-66
2023/08/18 05:13:11;;;;;;;4.87;3.98;;;;;;;20.67;100.00;100957.84;5258094;54;1142962;-65
2023/08/18 05:18:17;;;;;;;9.58;3.90;;;;;;;20.71;100.00;100964.55;5279177;54;1140866;-66
2023/08/18 05:23:23;;;;;;;6.28;3.75;;;;;;;20.78;100.00;100962.52;5258143;55;1141033;-68
2023/08/18 05:28:28;;;;;;;6.17;4.55;;;;;;;20.87;100.00;100959.61;5257321;54;1140836;-66
2023/08/18 05:33:34;;;;;;;6.83;4.20;;;;;;;20.95;100.00;100951.48;5043422;56;1140910;-66
2023/08/18 05:38:40;;;;;;;12.20;4.12;;;;;;;21.16;100.00;100943.32;5258816;54;1140846;-66
2023/08/18 05:43:45;;;;;;;5.87;3.70;;;;;;;21.49;100.00;100964.16;5257819;55;1143077;-66
2023/08/18 05:48:51;;;;;;;9.48;4.16;;;;;;;21.69;100.00;100986.36;5110720;56;1140823;-66
2023/08/18 05:53:57;;;;;;;15.53;4.67;;;;;;;21.85;100.00;100992.13;5278823;54;1140961;-66
2023/08/18 05:59:04;;;;;;;8.65;4.30;;;;;;;21.98;100.00;100988.34;5257536;55;1142762;-66
2023/08/18 06:04:09;;;;;;;8.90;4.45;;;;;;;22.12;100.00;100970.57;5258099;54;1140979;-66
2023/08/18 06:09:15;;;;;;;12.43;4.15;;;;;;;22.25;100.00;100972.13;5279051;54;1140726;-66
2023/08/18 06:14:21;;;;;;;11.28;4.50;;;;;;;22.53;100.00;100995.75;5257780;54;1142925;-66
2023/08/18 06:19:26;;;;;;;15.98;5.53;;;;;;;22.72;100.00;101005.98;5257777;55;1143218;-66
2023/08/18 06:24:32;;;;;;;8.20;4.87;;;;;;;22.81;100.00;101006.23;5132450;55;1142955;-67
2023/08/18 06:29:39;;;;;;;16.15;6.10;;;;;;;23.01;100.00;100993.02;5166692;55;1141061;-66
2023/08/18 06:34:45;;;;;;;9.68;4.80;;;;;;;23.20;100.00;100996.98;5024451;57;1142713;-67
2023/08/18 06:39:50;;;;;;;8.10;5.72;;;;;;;23.47;100.00;100990.34;5169403;55;1141296;-66
2023/08/18 06:44:56;;;;;;;9.60;6.28;;;;;;;23.68;100.00;100981.97;5151557;55;1140610;-66
2023/08/18 06:50:05;;;;;;;10.05;6.20;;;;;;;23.83;100.00;100989.48;5175468;55;1140723;-66
2023/08/18 06:55:13;;;;;;;13.13;6.42;;;;;;;24.00;100.00;100994.08;5180518;55;1142921;-67
2023/08/18 07:00:18;;;;;;;10.55;6.53;;;;;;;24.24;100.00;100985.59;5098331;56;1143351;-67
2023/08/18 07:05:27;;;;;;;8.58;6.17;;;;;;;24.51;100.00;100983.89;5188524;55;1143311;-68
2023/08/18 07:10:33;;;;;;;11.08;6.90;;;;;;;24.71;100.00;101011.91;5204438;54;1140658;-67
2023/08/18 07:15:38;;;;;;;9.80;6.53;;;;;;;24.85;100.00;101013.64;5277937;54;1143009;-67
2023/08/18 07:20:47;;;;;;;13.72;6.70;;;;;;;25.05;100.00;101006.18;5256987;54;1141218;-67
2023/08/18 07:25:53;;;;;;;16.27;8.13;;;;;;;25.23;100.00;100999.66;5164964;55;1143013;-67
2023/08/18 07:31:04;;;;;;;18.33;7.57;;;;;;;25.33;100.00;101001.48;5168334;55;1142846;-67
2023/08/18 07:36:10;;;;;;;16.30;9.30;;;;;;;25.41;100.00;100995.04;5188767;55;1142939;-67
2023/08/18 07:41:15;;;;;;;9.75;7.47;;;;;;;25.47;100.00;100995.06;5198384;55;1142863;-67
2023/08/18 07:46:21;;;;;;;15.68;9.48;;;;;;;25.58;100.00;101002.59;5258587;54;1140826;-67
2023/08/18 07:51:27;;;;;;;18.12;9.95;;;;;;;25.65;100.00;100997.74;5255005;55;1142832;-67
2023/08/18 07:56:33;;;;;;;15.93;9.38;;;;;;;25.74;100.00;100989.20;5169904;55;1143046;-67
2023/08/18 08:01:39;;;;;;;17.90;9.30;;;;;;;25.85;100.00;100991.28;5032458;55;1142865;-69
2023/08/18 08:06:44;;;;;;;13.32;8.93;;;;;;;25.95;100.00;100990.89;5189623;55;1143004;-67
2023/08/18 08:11:50;;;;;;;16.10;9.68;;;;;;;26.13;100.00;100990.24;5241357;55;1142929;-66
2023/08/18 08:16:56;;;;;;;13.43;8.07;;;;;;;26.34;100.00;100981.92;5247135;55;1142904;-67
2023/08/18 08:22:03;;;;;;;15.32;9.25;;;;;;;26.45;100.00;100987.22;5218872;55;1142896;-66
2023/08/18 08:27:08;;;;;;;13.18;9.03;;;;;;;26.37;100.00;100986.09;5186633;55;1142768;-66
2023/08/18 08:32:14;;;;;;;18.90;11.73;;;;;;;26.46;100.00;100989.72;5169770;55;1142766;-66
2023/08/18 08:37:20;;;;;;;19.65;10.18;;;;;;;26.47;100.00;101006.83;5273803;54;1145415;-67
2023/08/18 08:42:26;;;;;;;13.93;9.60;;;;;;;26.37;100.00;101016.77;5264977;54;1145050;-67
2023/08/18 08:47:32;;;;;;;15.90;10.87;;;;;;;26.34;100.00;101017.18;5207122;54;1142751;-66
2023/08/18 08:52:40;;;;;;;26.90;10.82;;;;;;;26.36;100.00;101022.40;5189299;55;1145135;-67
2023/08/18 08:57:46;;;;;;;16.35;11.00;;;;;;;26.42;100.00;101015.63;5026881;57;1264984;-67
2023/08/18 09:02:52;;;;;;;17.35;10.80;;;;;;;26.68;100.00;101010.66;5168525;55;1145150;-67
2023/08/18 09:07:57;;;;;;;18.80;10.43;;;;;;;26.93;100.00;101004.86;5243328;54;1145183;-66
2023/08/18 09:13:03;;;;;;;12.85;9.23;;;;;;;27.17;100.00;101007.92;5132754;56;1144982;-67
2023/08/18 09:18:09;;;;;;;13.55;10.08;;;;;;;27.23;100.00;101014.66;5169263;55;1143143;-67
2023/08/18 09:23:14;;;;;;;17.27;9.58;;;;;;;27.50;100.00;101010.47;5168370;55;1144727;-67
2023/08/18 09:28:20;;;;;;;10.25;8.08;;;;;;;27.71;100.00;101006.06;5188796;55;1143383;-66
2023/08/18 09:33:30;;;;;;;10.85;7.90;;;;;;;27.93;100.00;101006.02;5168852;55;1143348;-66
2023/08/18 09:38:42;;;;;;;10.77;7.77;;;;;;;28.07;100.00;100998.58;5168838;55;1143288;-66
2023/08/18 09:43:48;;;;;;;7.35;6.58;;;;;;;28.22;97.31;101002.35;5169618;55;1143026;-68
2023/08/18 09:48:57;;;;;;;8.48;6.10;;;;;;;28.33;97.25;100999.72;5222488;55;1138783;-66
2023/08/18 09:54:07;;;;;;;11.33;5.58;;;;;;;28.45;94.17;100990.81;5113943;56;1138664;-67
2023/08/18 09:59:20;;;;;;;5.78;5.12;;;;;;;28.65;91.37;100988.20;5202571;55;1140869;-66
2023/08/18 10:04:27;;;;;;;9.73;5.78;;;;;;;28.73;88.76;100980.24;5269122;55;1138919;-66
2023/08/18 10:09:33;;;;;;;5.78;5.26;;;;;;;28.90;90.26;100968.24;5258173;54;1138973;-67
2023/08/18 10:14:40;;;;;;;9.97;5.20;;;;;;;29.10;90.88;100970.72;5112826;55;1138756;-67
2023/08/18 10:20:03;;;;;;;5.95;5.45;;;;;;;29.27;89.84;100969.02;5210029;55;1139061;-66
2023/08/18 10:25:08;;;;;;;9.70;5.90;;;;;;;29.41;86.87;100975.98;5200965;55;1138915;-66
2023/08/18 10:30:27;;;;;;;9.55;5.97;;;;;;;29.52;86.01;100979.27;5165593;55;1138850;-66
2023/08/18 10:35:33;;;;;;;8.04;5.34;;;;;;;29.46;82.12;100976.66;5190460;55;1138848;-67
2023/08/18 10:40:39;;;;;;;8.73;5.58;;;;;;;29.19;83.83;100976.14;5169842;55;1138575;-67
2023/08/18 10:45:55;;;;;;;7.30;5.20;;;;;;;28.98;83.04;100978.84;5164355;55;1138936;-66
2023/08/18 10:51:01;;;;;;;11.75;5.78;;;;;;;28.97;85.12;100974.45;5223416;54;1138812;-66
2023/08/18 10:56:07;;;;;;;12.90;5.95;;;;;;;29.26;86.39;100969.55;5274669;54;1140932;-67
2023/08/18 11:01:13;;;;;;;10.35;6.78;;;;;;;29.55;85.04;100976.61;5170390;54;1140829;-66
2023/08/18 11:06:20;;;;;;;6.45;5.85;;;;;;;29.67;83.70;100963.30;5012700;57;1141056;-67
2023/08/18 11:11:29;;;;;;;8.35;5.47;;;;;;;29.87;84.95;100962.16;5150028;54;1138962;-67
2023/08/18 11:16:37;;;;;;;7.65;6.22;;;;;;;30.05;81.76;100957.47;5215402;55;1139158;-67
2023/08/18 11:21:43;;;;;;;6.10;5.33;;;;;;;30.16;82.87;100949.52;5114006;56;1138723;-67
2023/08/18 11:26:49;;;;;;;7.05;5.85;;;;;;;30.28;82.15;100942.15;5149225;55;1147601;-68
2023/08/18 11:31:54;;;;;;;7.97;5.03;;;;;;;30.40;79.27;100951.18;5235238;56;1138573;-67
2023/08/18 11:37:04;;;;;;;14.25;6.05;;;;;;;30.53;78.63;100945.46;5130394;55;1138711;-66
2023/08/18 11:42:10;;;;;;;7.23;5.67;;;;;;;30.62;80.50;100946.77;5190441;55;1140939;-66
2023/08/18 11:47:20;;;;;;;5.92;5.33;;;;;;;30.64;78.56;100947.89;5150688;55;1138735;-66
2023/08/18 11:52:26;;;;;;;8.07;6.17;;;;;;;30.51;78.82;100943.50;5201527;55;1138596;-66
2023/08/18 11:57:32;;;;;;;6.65;5.97;;;;;;;30.31;79.84;100955.32;5165138;55;1138599;-67
2023/08/18 12:02:51;;;;;;;10.45;7.08;;;;;;;30.29;77.13;100953.36;5189589;55;1138858;-66
2023/08/18 12:07:54;;;;;;;7.12;6.05;;;;;;;30.31;77.18;100954.79;5261036;54;1140951;-66
2023/08/18 12:13:00;;;;;;;15.65;6.40;;;;;;;30.27;76.72;100955.49;5189652;54;1138904;-67
2023/08/18 12:18:07;;;;;;;7.03;6.33;;;;;;;30.24;78.66;100955.46;5224731;54;1141051;-67
2023/08/18 12:23:13;;;;;;;8.28;5.87;;;;;;;30.25;78.04;100953.56;5170425;54;1138749;-67
2023/08/18 12:28:18;;;;;;;6.37;5.10;;;;;;;30.32;76.07;100960.55;5075734;56;1139105;-67
2023/08/18 12:33:25;;;;;;;9.53;6.37;;;;;;;30.24;73.51;100958.72;5153098;55;1138896;-66
2023/08/18 12:38:30;;;;;;;12.23;6.53;;;;;;;30.11;74.17;100957.57;5252158;54;1138624;-67
2023/08/18 12:43:37;;;;;;;7.45;5.92;;;;;;;30.08;77.70;100960.27;5299045;54;1140681;-66
2023/08/18 12:48:43;;;;;;;7.20;5.72;;;;;;;30.02;77.75;100962.03;5193448;54;1138853;-67
2023/08/18 12:53:48;;;;;;;13.13;5.85;;;;;;;29.78;77.09;100956.77;5213270;55;1139115;-67
2023/08/18 12:58:54;;;;;;;7.53;4.80;;;;;;;29.46;77.31;100946.14;5188788;55;1141049;-67
2023/08/18 13:03:59;;;;;;;7.53;5.12;;;;;;;29.28;77.99;100956.53;5194874;55;1138661;-68
2023/08/18 13:09:05;;;;;;;6.53;4.97;;;;;;;29.18;79.46;100960.88;5226180;55;1138360;-67
2023/08/18 13:14:11;;;;;;;7.70;4.87;;;;;;;29.09;79.29;100954.91;5342359;54;1138434;-67
2023/08/18 13:19:17;;;;;;;6.90;4.97;;;;;;;28.94;81.31;100954.48;5227325;55;1138846;-67
2023/08/18 13:24:23;;;;;;;6.00;5.30;;;;;;;28.86;82.26;100946.11;5164907;55;1138980;-67
2023/08/18 13:29:30;;;;;;;8.88;5.40;;;;;;;28.81;82.80;100942.39;5225453;56;1138594;-68
2023/08/18 13:34:35;;;;;;;6.97;5.70;;;;;;;28.72;80.92;100931.50;5193781;55;1138808;-67
2023/08/18 13:39:41;;;;;;;10.98;5.70;;;;;;;28.62;81.21;100930.66;5169109;56;1138671;-67
2023/08/18 13:44:46;;;;;;;13.48;5.72;;;;;;;28.58;82.04;100925.35;5164605;55;1141658;-66
2023/08/18 13:49:52;;;;;;;5.97;5.30;;;;;;;28.57;82.51;100921.80;5199604;54;1140948;-67
2023/08/18 13:54:57;;;;;;;10.30;6.20;;;;;;;28.70;84.34;100908.05;5194460;55;1138610;-67
2023/08/18 14:00:03;;;;;;;11.93;6.08;;;;;;;28.70;84.34;100908.05;5249506;54;1141039;-67
2023/08/18 14:05:11;;;;;;;10.72;6.62;;;;;;;28.85;83.22;100915.86;5204639;54;1140879;-67
2023/08/18 14:10:16;;;;;;;6.70;5.58;;;;;;;28.84;83.71;100917.44;5273182;54;1141099;-67
2023/08/18 14:15:22;;;;;;;8.18;6.15;;;;;;;28.81;83.84;100903.75;5175159;55;1138894;-67
2023/08/18 14:20:27;;;;;;;6.70;5.87;;;;;;;28.84;83.59;100910.64;5188360;54;1138846;-67
2023/08/18 14:25:33;;;;;;;6.03;5.53;;;;;;;28.78;83.54;100905.53;5189383;55;1139013;-66
2023/08/18 14:30:38;;;;;;;8.10;5.67;;;;;;;28.93;83.91;100905.16;5113915;56;1139002;-67
2023/08/18 14:35:44;;;;;;;10.20;5.20;;;;;;;28.98;80.48;100903.95;5186598;55;1139089;-66
2023/08/18 14:40:50;;;;;;;5.70;4.87;;;;;;;28.96;81.26;100908.79;5258597;54;1140934;-69
2023/08/18 14:45:56;;;;;;;7.95;5.60;;;;;;;28.95;79.80;100916.13;5299184;54;1138683;-69
2023/08/18 14:51:04;;;;;;;11.70;5.40;;;;;;;28.80;79.05;100921.14;5210764;55;1138663;-67
2023/08/18 14:56:09;;;;;;;7.83;5.07;;;;;;;28.74;80.25;100930.71;5257733;54;1140803;-65
2023/08/18 15:01:14;;;;;;;7.70;4.72;;;;;;;28.66;80.25;100937.31;5196696;55;1138687;-65
2023/08/18 15:06:20;;;;;;;8.58;5.58;;;;;;;28.56;80.35;100939.74;5169534;55;1138834;-65
2023/08/18 15:11:25;;;;;;;6.08;5.42;;;;;;;28.50;81.54;100945.55;5146681;55;1139045;-65
2023/08/18 15:16:31;;;;;;;8.23;5.50;;;;;;;28.52;82.29;100938.00;5239782;55;1138825;-65
2023/08/18 15:21:37;;;;;;;7.45;5.00;;;;;;;28.58;82.69;100934.88;5052675;56;1138816;-65
2023/08/18 15:26:43;;;;;;;6.40;5.80;;;;;;;28.57;82.74;100940.05;5213885;54;1138837;-66
2023/08/18 15:31:50;;;;;;;10.86;5.44;;;;;;;28.59;83.91;100935.19;5199643;55;1138545;-66
2023/08/18 15:36:56;;;;;;;13.43;6.60;;;;;;;28.58;83.99;100932.16;5258322;54;1141089;-65
2023/08/18 15:42:01;;;;;;;6.30;5.70;;;;;;;28.57;83.33;100928.59;5204957;54;1140947;-65
2023/08/18 15:47:07;;;;;;;6.78;6.17;;;;;;;28.54;82.74;100919.56;5196354;54;1138744;-65
2023/08/18 15:52:13;;;;;;;9.58;5.30;;;;;;;28.46;83.64;100917.65;5133678;55;1138619;-65
2023/08/18 15:57:18;;;;;;;6.47;5.85;;;;;;;28.44;83.72;100916.52;5257124;54;1138463;-64
2023/08/18 16:02:24;;;;;;;9.53;5.83;;;;;;;28.45;84.00;100916.81;5199742;55;1138907;-67
2023/08/18 16:07:29;;;;;;;9.75;5.55;;;;;;;28.40;84.42;100919.41;5230450;54;1138573;-68
2023/08/18 16:12:35;;;;;;;6.60;5.67;;;;;;;28.28;84.64;100922.02;5113786;56;1138829;-66
2023/08/18 16:17:40;;;;;;;11.80;5.78;;;;;;;28.14;85.50;100917.74;5194807;54;1138980;-66
2023/08/18 16:22:47;;;;;;;8.13;5.75;;;;;;;28.08;86.58;100917.30;5216899;54;1141116;-68
2023/08/18 16:27:53;;;;;;;5.72;4.97;;;;;;;28.05;87.08;100917.74;5114105;56;1138800;-67
2023/08/18 16:32:59;;;;;;;7.03;5.03;;;;;;;27.98;86.43;100927.30;5151183;55;1138904;-66
2023/08/18 16:38:05;;;;;;;9.83;5.93;;;;;;;27.88;86.40;100928.34;5163781;55;1139133;-66
2023/08/18 16:43:10;;;;;;;4.75;4.35;;;;;;;27.76;86.52;100923.86;5114475;56;1138925;-66
2023/08/18 16:48:16;;;;;;;6.17;5.67;;;;;;;27.66;87.16;100925.17;5197260;55;1139093;-67
2023/08/18 16:53:22;;;;;;;9.10;6.83;;;;;;;27.57;87.65;100916.17;5278116;54;1138520;-67
2023/08/18 16:58:27;;;;;;;10.03;6.25;;;;;;;27.53;87.78;100918.45;5238109;54;1139088;-67
2023/08/18 17:03:33;;;;;;;5.70;5.08;;;;;;;27.48;87.51;100918.83;5175394;54;1140897;-67
2023/08/18 17:08:39;;;;;;;5.03;4.55;;;;;;;27.48;87.80;100921.02;5217201;55;1138630;-68
2023/08/18 17:13:47;;;;;;;5.53;4.62;;;;;;;27.47;87.44;100918.00;5199056;55;1138833;-67
2023/08/18 17:18:51;;;;;;;6.92;4.55;;;;;;;27.45;87.63;100920.09;5086850;55;1138881;-66
2023/08/18 17:23:57;;;;;;;6.75;4.80;;;;;;;27.47;88.44;100913.92;5113981;56;1138824;-67
2023/08/18 17:29:03;;;;;;;9.00;4.87;;;;;;;27.39;88.82;100916.89;5084027;56;1138770;-67
2023/08/18 17:34:09;;;;;;;6.35;4.62;;;;;;;27.29;89.10;100927.41;5168251;55;1138638;-67
2023/08/18 17:39:14;;;;;;;12.18;5.10;;;;;;;27.01;90.31;100932.38;5178035;55;1138728;-67
2023/08/18 17:44:20;;;;;;;12.78;6.90;;;;;;;27.01;90.31;100932.38;5181693;54;1140857;-67
2023/08/18 17:49:25;;;;;;;10.58;5.47;;;;;;;26.95;90.03;100924.56;5042127;56;1140955;-67
2023/08/18 17:54:32;;;;;;;17.20;5.65;;;;;;;26.95;90.38;100934.91;5039131;55;1140908;-67
2023/08/18 17:59:37;;;;;;;22.05;8.30;;;;;;;26.82;90.49;100939.00;5056226;56;1140948;-67
2023/08/18 18:04:43;;;;;;;7.85;6.85;;;;;;;26.72;90.77;100935.09;4975812;56;1140750;-67
2023/08/18 18:09:49;;;;;;;7.78;5.62;;;;;;;26.66;91.48;100940.84;4978553;56;1138554;-69
2023/08/18 18:14:55;;;;;;;12.16;6.34;;;;;;;26.57;91.84;100939.42;5039035;56;1138622;-67
2023/08/18 18:20:02;;;;;;;9.08;5.50;;;;;;;26.50;92.56;100942.66;5098430;56;1140898;-67
2023/08/18 18:25:08;;;;;;;21.27;9.20;;;;;;;26.36;92.90;100950.00;5185322;55;1138815;-67
2023/08/18 18:30:14;;;;;;;13.72;6.75;;;;;;;26.22;93.63;100951.87;5189462;54;1140795;-67
2023/08/18 18:35:23;;;;;;;17.85;6.58;;;;;;;26.11;94.01;100947.62;5200302;54;1140849;-66
2023/08/18 18:40:28;;;;;;;9.78;5.70;;;;;;;26.00;94.25;100956.36;5197028;55;1140732;-67
2023/08/18 18:45:35;;;;;;;17.95;7.40;;;;;;;26.01;95.12;100962.10;5220143;54;1138814;-66
2023/08/18 18:50:41;;;;;;;37.33;11.50;;;;;;;25.98;94.73;100970.13;5209537;55;1140959;-67
2023/08/18 18:55:49;;;;;;;26.30;8.80;;;;;;;25.94;94.80;100970.25;5178634;55;1175121;-66
2023/08/18 19:00:54;;;;;;;15.34;7.50;;;;;;;25.90;95.02;100974.41;5175444;55;1141125;-67
2023/08/18 19:06:00;;;;;;;11.30;5.53;;;;;;;25.85;94.97;100981.80;5179375;54;1140901;-66
2023/08/18 19:11:06;;;;;;;36.25;11.75;;;;;;;25.82;94.80;100975.44;5250767;54;1140688;-67
2023/08/18 19:16:12;;;;;;;24.75;8.28;;;;;;;25.70;95.05;100976.27;5257648;54;1142984;-67
2023/08/18 19:21:17;;;;;;;12.15;6.37;;;;;;;25.58;95.49;100974.14;5220677;54;1140702;-65
2023/08/18 19:26:24;;;;;;;7.40;6.67;;;;;;;25.46;96.15;100981.20;5223497;54;1141156;-67
2023/08/18 19:31:30;;;;;;;14.75;7.08;;;;;;;25.42;96.82;100977.23;5169677;55;1139014;-66
2023/08/18 19:36:36;;;;;;;13.50;7.67;;;;;;;25.35;97.32;100981.81;5166556;55;1234392;-67
2023/08/18 19:41:45;;;;;;;15.83;9.10;;;;;;;25.22;97.96;100975.81;5210535;55;1201384;-67
2023/08/18 19:46:51;;;;;;;19.87;8.98;;;;;;;25.19;99.17;100971.35;5190982;54;1242944;-67
2023/08/18 19:51:56;;;;;;;12.53;9.35;;;;;;;25.20;100.00;100966.25;5237747;54;1231427;-67
2023/08/18 19:57:03;;;;;;;29.90;9.75;;;;;;;25.19;99.97;100976.77;5278315;55;1143580;-66
2023/08/18 20:02:08;;;;;;;23.47;10.18;;;;;;;25.07;99.60;100967.02;5257266;55;1179131;-65
2023/08/18 20:07:14;;;;;;;23.12;12.63;;;;;;;24.85;100.00;100969.52;5254923;55;1229523;-66
2023/08/18 20:12:20;;;;;;;23.02;12.78;;;;;;;24.84;100.00;100953.80;5255405;54;1253690;-67
2023/08/18 20:17:26;;;;;;;21.35;11.20;;;;;;;24.75;100.00;100944.16;5254177;54;1257958;-68
2023/08/18 20:22:31;;;;;;;16.95;9.13;;;;;;;24.67;100.00;100936.75;5243059;54;1259459;-67
2023/08/18 20:27:38;;;;;;;17.37;10.00;;;;;;;24.54;100.00;100942.94;5275882;54;1258755;-67
2023/08/18 20:32:43;;;;;;;18.90;10.85;;;;;;;24.39;100.00;100952.52;5177336;55;1256153;-67
2023/08/18 20:37:49;;;;;;;20.62;11.38;;;;;;;24.34;100.00;100957.68;5166409;55;1253063;-67
2023/08/18 20:42:55;;;;;;;14.25;10.70;;;;;;;24.34;100.00;100956.84;5166050;55;1249328;-67
2023/08/18 20:48:00;;;;;;;15.85;9.53;;;;;;;24.31;100.00;100947.77;5201466;55;1145150;-68
2023/08/18 20:53:06;;;;;;;13.17;8.63;;;;;;;23.95;100.00;100946.56;5190283;54;1248977;-67
2023/08/18 20:58:12;;;;;;;12.80;9.17;;;;;;;23.93;100.00;100935.95;5258283;53;1142891;-67
2023/08/18 21:03:18;;;;;;;71.40;25.55;;;;;;;23.91;100.00;100925.84;5279006;54;1142844;-66
2023/08/18 21:08:24;;;;;;;79.55;29.77;;;;;;;23.82;100.00;100921.12;5125560;55;1145288;-67
2023/08/18 21:13:29;;;;;;;23.35;11.75;;;;;;;23.84;100.00;100924.43;5058073;55;1145191;-67
2023/08/18 21:18:35;;;;;;;70.25;24.15;;;;;;;23.78;100.00;100929.80;5064393;56;1144830;-67
2023/08/18 21:23:41;;;;;;;27.87;11.97;;;;;;;23.78;100.00;100950.05;5133074;55;1145061;-68
2023/08/18 21:28:47;;;;;;;17.20;10.23;;;;;;;23.75;100.00;100954.48;5069784;55;1247963;-69
2023/08/18 21:33:52;;;;;;;67.08;22.73;;;;;;;23.38;100.00;100955.03;5110320;56;1181473;-69
2023/08/18 21:39:04;;;;;;;65.75;25.05;;;;;;;23.32;100.00;100946.37;5067129;57;1144918;-67
2023/08/18 21:44:05;;;;;;;283.35;98.15;;;;;;;23.37;100.00;100939.05;5239018;54;1144813;-67
2023/08/18 21:49:11;;;;;;;60.70;25.63;;;;;;;23.41;100.00;100934.41;5133500;56;1146988;-67
2023/08/18 21:54:17;;;;;;;29.50;18.05;;;;;;;23.43;100.00;100932.34;5153100;55;1144842;-67
2023/08/18 21:59:22;;;;;;;33.18;21.52;;;;;;;23.40;100.00;100929.19;5278466;55;1178285;-66
2023/08/18 22:04:28;;;;;;;35.20;17.12;;;;;;;23.39;100.00;100924.81;5279359;54;1145017;-67
2023/08/18 22:09:34;;;;;;;25.70;14.50;;;;;;;23.29;100.00;100926.50;5299875;55;1144924;-67
2023/08/18 22:14:39;;;;;;;36.83;17.35;;;;;;;22.88;100.00;100936.20;5278868;54;1144857;-67
2023/08/18 22:19:46;;;;;;;24.12;14.70;;;;;;;22.70;100.00;100936.56;5279329;55;1145073;-67
2023/08/18 22:24:53;;;;;;;34.50;17.75;;;;;;;22.72;100.00;100922.39;5279300;54;1145097;-68
2023/08/18 22:29:59;;;;;;;58.70;25.23;;;;;;;22.76;100.00;100917.78;5298987;54;1145091;-67
2023/08/18 22:35:05;;;;;;;52.85;22.15;;;;;;;22.83;100.00;100920.58;5278210;54;1145092;-67
2023/08/18 22:40:11;;;;;;;24.47;14.17;;;;;;;22.80;100.00;100919.61;5278763;54;1145255;-67
2023/08/18 22:45:18;;;;;;;14.63;8.85;;;;;;;22.61;100.00;100914.24;5299706;54;1144709;-66
2023/08/18 22:50:24;;;;;;;8.40;7.60;;;;;;;22.51;100.00;100926.34;5226276;54;1142973;-67